Time;durP1;ratioP1;P1;durP2;ratioP2;P2;SDS_P1;SDS_P2;PMS_P1;PMS_P2;Temp;Humidity;BMP_temperature;BMP_pressure;BME280_temperature;BME280_humidity;BME280_pressure;Samples;Min_cycle;Max_cycle;Signal;HPM_P1;HPM_P2
2022/11/10 00:00:33;;;;;;;330.58;167.77;;;8.30;99.90;;;;;;6276744;22;20078;-85
2022/11/10 00:03:03;;;;;;;309.90;162.18;;;8.30;99.90;;;;;;6278460;22;19996;-85
2022/11/10 00:05:30;;;;;;;337.73;178.90;;;8.30;99.90;;;;;;6277901;22;19996;-85
2022/11/10 00:07:56;;;;;;;316.35;166.52;;;8.30;99.90;;;;;;6278057;22;19991;-84
2022/11/10 00:10:22;;;;;;;320.35;164.45;;;8.20;99.90;;;;;;6276946;22;20078;-84
2022/11/10 00:12:48;;;;;;;370.83;175.48;;;8.20;99.90;;;;;;6277773;22;20081;-84
2022/11/10 00:18:01;;;;;;;342.90;170.02;;;8.10;99.90;;;;;;6277792;22;20011;-85
2022/11/10 00:20:27;;;;;;;334.30;168.13;;;8.10;99.90;;;;;;6278210;22;19996;-84
2022/11/10 00:22:54;;;;;;;307.13;157.50;;;8.10;99.90;;;;;;6278231;22;20316;-84
2022/11/10 00:25:20;;;;;;;288.08;152.90;;;8.10;99.90;;;;;;6278475;22;20000;-85
2022/11/10 00:27:46;;;;;;;299.00;149.65;;;8.00;99.90;;;;;;6302744;22;20156;-84
2022/11/10 00:30:12;;;;;;;304.60;155.50;;;8.00;99.90;;;;;;6277901;22;20490;-85
2022/11/10 00:32:38;;;;;;;320.05;160.93;;;8.00;99.90;;;;;;6277965;22;20443;-85
2022/11/10 00:35:04;;;;;;;327.70;170.38;;;8.00;99.90;;;;;;6278147;22;19991;-84
2022/11/10 00:37:29;;;;;;;323.20;161.48;;;7.90;99.90;;;;;;6278311;22;19992;-84
2022/11/10 00:39:55;;;;;;;333.60;157.10;;;7.90;99.90;;;;;;6277998;22;20063;-84
2022/11/10 00:42:21;;;;;;;319.40;148.02;;;7.80;99.90;;;;;;6276765;22;19995;-84
2022/11/10 00:44:47;;;;;;;303.45;145.55;;;7.80;99.90;;;;;;6278039;22;19996;-85
2022/11/10 00:47:13;;;;;;;272.77;136.68;;;7.80;99.90;;;;;;6276379;22;19999;-85
2022/11/10 00:49:38;;;;;;;284.42;136.35;;;7.70;99.90;;;;;;6277972;22;19998;-84
2022/11/10 00:52:04;;;;;;;327.20;153.98;;;7.70;99.90;;;;;;6278169;22;20062;-85
2022/11/10 00:54:30;;;;;;;303.85;149.30;;;7.60;99.90;;;;;;6277402;22;20022;-84
2022/11/10 00:56:56;;;;;;;288.90;141.07;;;7.60;99.90;;;;;;6276159;22;19999;-83
2022/11/10 00:59:21;;;;;;;306.58;146.85;;;7.60;99.90;;;;;;6277927;22;19995;-85
2022/11/10 01:01:47;;;;;;;291.58;137.93;;;7.60;99.90;;;;;;6277616;22;20030;-83
2022/11/10 01:04:13;;;;;;;288.63;136.35;;;7.50;99.90;;;;;;6277688;22;19992;-84
2022/11/10 01:06:39;;;;;;;301.50;147.65;;;7.50;99.90;;;;;;6277516;22;20000;-83
2022/11/10 01:09:04;;;;;;;322.15;151.05;;;7.40;99.90;;;;;;6302134;22;20049;-84
2022/11/10 01:11:30;;;;;;;326.08;160.95;;;7.30;99.90;;;;;;6275805;22;20383;-85
2022/11/10 01:13:56;;;;;;;330.85;163.23;;;7.30;99.90;;;;;;6277618;22;19992;-84
2022/11/10 01:16:24;;;;;;;348.08;171.15;;;7.20;99.90;;;;;;6277617;22;20079;-84
2022/11/10 01:18:52;;;;;;;299.60;149.45;;;7.20;99.90;;;;;;6276046;22;20075;-85
2022/11/10 01:21:19;;;;;;;327.15;156.73;;;7.10;99.90;;;;;;6277422;22;19992;-85
2022/11/10 01:23:45;;;;;;;307.98;142.10;;;7.00;99.90;;;;;;6276224;22;20313;-84
2022/11/10 01:26:11;;;;;;;399.98;158.30;;;7.00;99.90;;;;;;6250114;22;20090;-84
2022/11/10 01:28:37;;;;;;;302.35;134.65;;;6.90;99.90;;;;;;6277277;22;20483;-84
2022/11/10 01:31:12;;;;;;;366.23;139.85;;;6.80;99.90;;;;;;6277282;22;20015;-84
2022/11/10 01:33:38;;;;;;;337.02;136.93;;;6.80;99.90;;;;;;6277526;22;20063;-85
2022/11/10 01:36:05;;;;;;;358.30;142.00;;;6.70;99.90;;;;;;6276806;22;19995;-84
2022/11/10 01:38:34;;;;;;;358.40;134.50;;;6.70;99.90;;;;;;6277409;22;20004;-85
2022/11/10 01:41:01;;;;;;;375.45;127.75;;;6.60;99.90;;;;;;6250337;22;20031;-84
2022/11/10 01:43:27;;;;;;;317.67;128.65;;;6.50;99.90;;;;;;6250400;22;20000;-85
2022/11/10 01:46:02;;;;;;;354.48;133.98;;;6.50;99.90;;;;;;6250532;22;20009;-84
2022/11/10 01:48:45;;;;;;;380.27;139.25;;;6.50;99.90;;;;;;6277343;22;19995;-84
2022/11/10 01:51:16;;;;;;;476.33;159.68;;;6.50;99.90;;;;;;6277707;22;19992;-85
2022/11/10 01:53:47;;;;;;;485.27;148.27;;;6.40;99.90;;;;;;6277751;22;20026;-85
2022/11/10 01:56:15;;;;;;;448.92;139.88;;;6.30;99.90;;;;;;6277670;22;20422;-84
2022/11/10 01:58:46;;;;;;;365.13;125.50;;;6.30;99.90;;;;;;6277335;22;20024;-84
2022/11/10 02:01:13;;;;;;;421.85;145.70;;;6.30;99.90;;;;;;6277265;22;19988;-84
2022/11/10 02:03:48;;;;;;;305.58;120.90;;;6.20;99.90;;;;;;6277379;22;20018;-84
2022/11/10 02:06:15;;;;;;;337.63;144.18;;;6.20;99.90;;;;;;6277789;22;19999;-85
2022/11/10 02:08:42;;;;;;;364.45;147.43;;;6.10;99.90;;;;;;6277469;22;20389;-84
2022/11/10 02:11:08;;;;;;;290.02;138.65;;;6.10;99.90;;;;;;6276497;22;20293;-84
2022/11/10 02:13:34;;;;;;;289.90;130.77;;;6.10;99.90;;;;;;6276662;22;19995;-84
2022/11/10 02:16:00;;;;;;;264.42;111.65;;;6.10;99.90;;;;;;6277121;22;19995;-85
2022/11/10 02:18:26;;;;;;;349.05;154.57;;;6.10;99.90;;;;;;6276764;22;20006;-84
2022/11/10 02:20:52;;;;;;;280.30;116.75;;;6.10;99.90;;;;;;6277137;22;19996;-84
2022/11/10 02:23:30;;;;;;;251.68;111.18;;;6.10;99.90;;;;;;6276586;22;19996;-85
2022/11/10 02:25:56;;;;;;;295.08;108.90;;;6.10;99.90;;;;;;6276799;22;20282;-84
2022/11/10 02:28:22;;;;;;;367.75;124.22;;;6.10;99.90;;;;;;6277018;22;20474;-84
2022/11/10 02:30:48;;;;;;;378.38;129.90;;;6.00;99.90;;;;;;6276775;22;20027;-84
2022/11/10 02:33:16;;;;;;;297.70;125.32;;;6.10;99.90;;;;;;6277059;22;20356;-84
2022/11/10 02:35:43;;;;;;;304.55;114.38;;;6.00;99.90;;;;;;6275374;22;20000;-84
2022/11/10 02:38:09;;;;;;;277.90;121.15;;;5.90;99.90;;;;;;6276637;22;20031;-84
2022/11/10 02:40:35;;;;;;;230.25;112.20;;;5.90;99.90;;;;;;6276652;22;20313;-85
2022/11/10 02:43:03;;;;;;;277.30;111.97;;;5.90;99.90;;;;;;6276672;22;19995;-84
2022/11/10 02:45:29;;;;;;;257.70;101.13;;;5.90;99.90;;;;;;6249463;22;20015;-85
2022/11/10 02:47:54;;;;;;;292.27;105.78;;;5.90;99.90;;;;;;6275440;22;20049;-85
2022/11/10 02:50:20;;;;;;;265.05;104.40;;;5.90;99.90;;;;;;6276862;22;20045;-86
2022/11/10 02:52:46;;;;;;;300.95;109.45;;;5.90;99.90;;;;;;6276780;22;20059;-85
2022/11/10 02:55:12;;;;;;;229.43;99.22;;;5.90;99.90;;;;;;6275441;22;20003;-84
2022/11/10 02:57:37;;;;;;;222.07;105.60;;;5.90;99.90;;;;;;6275142;22;20011;-83
2022/11/10 03:00:05;;;;;;;199.52;103.80;;;5.90;99.90;;;;;;6275117;22;19999;-84
2022/11/10 03:02:31;;;;;;;194.40;98.38;;;5.90;99.90;;;;;;6276134;22;19996;-84
2022/11/10 03:04:57;;;;;;;189.85;95.07;;;5.90;99.90;;;;;;6276840;22;20289;-84
2022/11/10 03:07:22;;;;;;;177.38;95.15;;;5.90;99.90;;;;;;6276738;22;19999;-85
2022/11/10 03:09:49;;;;;;;179.27;99.25;;;6.00;99.90;;;;;;6276425;22;19991;-84
2022/11/10 03:12:15;;;;;;;173.63;97.97;;;6.00;99.90;;;;;;6276951;22;20393;-84
2022/11/10 03:14:41;;;;;;;165.00;94.90;;;6.00;99.90;;;;;;6276706;22;20025;-85
2022/11/10 03:17:07;;;;;;;182.45;98.45;;;6.00;99.90;;;;;;6277004;22;19992;-84
2022/11/10 03:19:32;;;;;;;174.05;94.25;;;5.90;99.90;;;;;;6276871;22;20000;-85
2022/11/10 03:21:58;;;;;;;178.32;95.82;;;6.00;99.90;;;;;;6277157;22;19999;-84
2022/11/10 03:24:24;;;;;;;166.40;88.65;;;5.90;99.90;;;;;;6277518;22;20002;-84
2022/11/10 03:26:49;;;;;;;149.43;87.75;;;5.90;99.90;;;;;;6276935;22;19996;-85
2022/11/10 03:29:15;;;;;;;151.80;86.72;;;6.00;99.90;;;;;;6277784;22;20004;-84
2022/11/10 03:31:41;;;;;;;151.40;86.80;;;6.00;99.90;;;;;;6275090;22;20002;-84
2022/11/10 03:34:07;;;;;;;163.57;90.90;;;6.00;99.90;;;;;;6276335;22;20023;-84
2022/11/10 03:36:33;;;;;;;142.07;84.72;;;6.00;99.90;;;;;;6278619;22;20002;-85
2022/11/10 03:38:58;;;;;;;148.05;87.63;;;6.00;99.90;;;;;;6277069;22;19999;-84
2022/11/10 03:41:24;;;;;;;178.35;97.55;;;6.00;99.90;;;;;;6278481;22;20053;-84
2022/11/10 03:43:50;;;;;;;190.80;107.82;;;6.00;99.90;;;;;;6276489;22;20312;-84
2022/11/10 03:46:17;;;;;;;191.75;113.55;;;6.00;99.90;;;;;;6276808;22;20087;-85
2022/11/10 03:48:43;;;;;;;191.23;112.03;;;6.10;99.90;;;;;;6278017;22;20300;-82
2022/11/10 03:51:09;;;;;;;205.93;117.53;;;6.10;99.90;;;;;;6251431;22;20420;-82
2022/11/10 03:53:34;;;;;;;183.27;112.20;;;6.00;99.90;;;;;;6277983;22;19992;-82
2022/11/10 03:56:02;;;;;;;226.18;130.43;;;6.10;99.90;;;;;;6277858;22;20038;-82
2022/11/10 03:58:27;;;;;;;190.30;110.75;;;6.00;99.90;;;;;;6277998;22;20399;-82
2022/11/10 04:00:53;;;;;;;201.65;107.40;;;6.10;99.90;;;;;;6251487;22;20076;-82
2022/11/10 04:03:19;;;;;;;240.90;129.75;;;6.00;99.90;;;;;;6278304;22;20300;-82
2022/11/10 04:15:40;;;;;;;206.70;114.25;;;6.00;99.90;;;;;;6278417;22;20297;-82
2022/11/10 04:16:43;;;;;;;168.35;92.22;;;6.00;99.90;;;;;;6277858;22;20007;-82
2022/11/10 04:19:09;;;;;;;149.82;82.88;;;6.00;99.90;;;;;;6278398;22;20000;-82
2022/11/10 04:21:35;;;;;;;147.80;85.03;;;6.00;99.90;;;;;;6276627;22;19996;-82
2022/11/10 04:24:01;;;;;;;155.40;84.13;;;6.00;99.90;;;;;;6276254;22;19995;-82
2022/11/10 04:26:27;;;;;;;157.25;83.63;;;6.00;99.90;;;;;;6277801;22;20320;-83
2022/11/10 04:28:55;;;;;;;144.85;77.60;;;6.00;99.90;;;;;;6277871;22;20043;-82
2022/11/10 04:31:23;;;;;;;153.93;85.70;;;6.00;99.90;;;;;;6250752;22;20546;-82
2022/11/10 04:33:49;;;;;;;185.57;99.65;;;6.00;99.90;;;;;;6277507;22;20000;-82
2022/11/10 04:36:23;;;;;;;170.65;91.68;;;6.00;99.90;;;;;;6250974;22;20010;-82
2022/11/10 04:38:49;;;;;;;177.07;101.22;;;6.00;99.90;;;;;;6251322;22;20004;-81
2022/11/10 04:41:15;;;;;;;171.88;90.93;;;6.00;99.90;;;;;;6278083;22;20074;-82
2022/11/10 04:43:42;;;;;;;162.77;89.20;;;6.00;99.90;;;;;;6276114;22;20050;-82
2022/11/10 04:46:19;;;;;;;144.35;81.07;;;6.00;99.90;;;;;;6250251;22;20035;-82
2022/11/10 04:48:45;;;;;;;151.75;79.88;;;6.00;99.90;;;;;;6277680;22;19995;-82
2022/11/10 04:51:11;;;;;;;155.40;80.10;;;6.00;99.90;;;;;;6277379;22;20070;-82
2022/11/10 04:53:37;;;;;;;159.20;84.57;;;6.00;99.90;;;;;;6278171;22;19999;-82
2022/11/10 04:56:02;;;;;;;147.73;80.07;;;6.00;99.90;;;;;;6276050;22;20011;-83
2022/11/10 04:58:28;;;;;;;145.25;81.43;;;6.10;99.90;;;;;;6277673;22;20474;-82
2022/11/10 05:00:54;;;;;;;148.55;81.90;;;6.10;99.90;;;;;;6277719;22;20348;-84
2022/11/10 05:03:20;;;;;;;133.38;74.95;;;6.10;99.90;;;;;;6277765;22;20090;-84
2022/11/10 05:05:45;;;;;;;145.48;82.97;;;6.10;99.90;;;;;;6277695;22;20003;-84
2022/11/10 05:08:11;;;;;;;161.55;88.18;;;6.10;99.90;;;;;;6277765;22;20293;-84
2022/11/10 05:10:37;;;;;;;167.10;88.97;;;6.00;99.90;;;;;;6276195;22;20313;-84
2022/11/10 05:13:04;;;;;;;162.88;90.78;;;6.00;99.90;;;;;;6277148;22;20003;-84
2022/11/10 05:15:31;;;;;;;151.25;88.15;;;5.90;99.90;;;;;;6276050;22;20478;-83
2022/11/10 05:17:57;;;;;;;145.68;79.72;;;5.90;99.90;;;;;;6278082;22;20444;-84
2022/11/10 05:20:25;;;;;;;153.88;86.28;;;5.90;99.90;;;;;;6277427;22;19999;-84
2022/11/10 05:25:40;;;;;;;150.77;81.63;;;5.90;99.90;;;;;;6277474;22;20010;-83
2022/11/10 05:28:08;;;;;;;137.55;78.55;;;5.90;99.90;;;;;;6277830;22;20003;-84
2022/11/10 05:30:34;;;;;;;183.68;101.32;;;5.90;99.90;;;;;;6250452;22;20060;-83
2022/11/10 05:33:01;;;;;;;168.65;97.47;;;5.90;99.90;;;;;;6276978;22;20396;-83
2022/11/10 05:35:27;;;;;;;154.38;91.63;;;5.90;99.90;;;;;;6275959;22;20061;-83
2022/11/10 05:37:52;;;;;;;159.15;91.35;;;5.90;99.90;;;;;;6250324;22;19995;-83
2022/11/10 05:40:18;;;;;;;159.15;89.13;;;5.90;99.90;;;;;;6275719;22;20007;-83
2022/11/10 05:42:46;;;;;;;155.65;89.45;;;5.90;99.90;;;;;;6250713;22;20028;-84
2022/11/10 05:45:13;;;;;;;151.95;86.13;;;5.90;99.90;;;;;;6249220;22;19995;-84
2022/11/10 05:47:39;;;;;;;149.07;86.80;;;5.90;99.90;;;;;;6275461;22;19991;-83
2022/11/10 05:50:05;;;;;;;152.77;84.55;;;5.90;99.90;;;;;;6276526;22;19987;-83
2022/11/10 05:52:31;;;;;;;226.05;116.60;;;6.00;99.90;;;;;;6249995;22;20050;-84
2022/11/10 05:54:57;;;;;;;231.95;126.07;;;6.00;99.90;;;;;;6276861;22;20000;-83
2022/11/10 05:57:23;;;;;;;354.42;196.05;;;6.00;99.90;;;;;;6276997;22;20030;-84
2022/11/10 05:59:49;;;;;;;183.73;99.75;;;6.00;99.90;;;;;;6277367;22;19999;-84
2022/11/10 06:02:15;;;;;;;144.40;79.43;;;6.00;99.90;;;;;;6274884;22;20313;-83
2022/11/10 06:04:41;;;;;;;203.80;119.25;;;6.00;99.90;;;;;;6274533;22;20086;-84
2022/11/10 06:07:07;;;;;;;273.58;145.68;;;6.10;99.90;;;;;;6275879;22;20026;-83
2022/11/10 06:09:33;;;;;;;244.82;136.63;;;6.20;99.90;;;;;;6277187;22;20003;-85
2022/11/10 06:12:00;;;;;;;195.60;114.00;;;6.20;99.90;;;;;;6276553;22;19992;-84
2022/11/10 06:14:26;;;;;;;214.60;123.70;;;6.30;99.90;;;;;;6276944;22;20431;-83
2022/11/10 06:16:51;;;;;;;180.38;100.88;;;6.30;99.90;;;;;;6275486;22;19996;-84
2022/11/10 06:19:17;;;;;;;145.48;84.05;;;6.40;99.90;;;;;;6249995;22;19999;-84
2022/11/10 06:21:43;;;;;;;136.32;80.07;;;6.40;99.90;;;;;;6276746;22;19996;-84
2022/11/10 06:24:09;;;;;;;127.25;71.32;;;6.50;99.90;;;;;;6275745;22;20003;-84
2022/11/10 06:26:35;;;;;;;131.63;73.10;;;6.50;99.90;;;;;;6249761;22;20056;-84
2022/11/10 06:29:01;;;;;;;135.65;72.72;;;6.60;99.90;;;;;;6277435;22;20008;-84
2022/11/10 06:31:27;;;;;;;128.95;75.47;;;6.60;99.90;;;;;;6276925;22;19999;-83
2022/11/10 06:33:54;;;;;;;195.80;109.95;;;6.70;99.90;;;;;;6275551;22;19992;-84
2022/11/10 06:36:20;;;;;;;177.95;102.82;;;6.90;99.90;;;;;;6276777;22;20023;-84
2022/11/10 06:38:46;;;;;;;196.93;113.68;;;7.20;99.90;;;;;;6277212;22;20070;-84
2022/11/10 06:41:12;;;;;;;211.25;116.43;;;7.40;99.90;;;;;;6275072;22;20023;-84
2022/11/10 06:43:38;;;;;;;226.98;119.35;;;7.50;99.90;;;;;;6276725;22;20002;-83
2022/11/10 06:46:04;;;;;;;206.20;107.95;;;7.40;99.90;;;;;;6277098;22;19995;-84
2022/11/10 06:48:30;;;;;;;221.75;110.45;;;7.40;99.90;;;;;;6276863;22;20289;-85
2022/11/10 06:50:59;;;;;;;212.48;106.70;;;7.40;99.90;;;;;;6276786;22;20300;-84
2022/11/10 06:53:25;;;;;;;213.30;115.18;;;7.50;99.90;;;;;;6249911;22;20000;-84
2022/11/10 06:55:51;;;;;;;213.57;115.55;;;7.50;99.90;;;;;;6277228;22;20054;-84
2022/11/10 06:58:17;;;;;;;227.50;120.38;;;7.50;99.90;;;;;;6249937;22;20004;-84
2022/11/10 07:00:43;;;;;;;226.50;123.18;;;7.50;99.90;;;;;;6275458;22;20065;-84
2022/11/10 07:03:12;;;;;;;215.38;117.40;;;7.40;99.90;;;;;;6276154;22;20458;-84
2022/11/10 07:05:38;;;;;;;240.05;132.20;;;7.50;99.90;;;;;;6276815;22;20003;-84
2022/11/10 07:08:06;;;;;;;247.35;143.48;;;7.50;99.90;;;;;;6248667;22;20011;-84
2022/11/10 07:10:32;;;;;;;213.80;117.25;;;7.60;99.90;;;;;;6249884;22;20048;-84
2022/11/10 07:12:59;;;;;;;187.13;109.93;;;7.60;99.90;;;;;;6252099;22;20440;-84
2022/11/10 07:15:25;;;;;;;197.45;112.10;;;7.60;99.90;;;;;;6279017;22;20003;-84
2022/11/10 07:17:51;;;;;;;214.27;116.80;;;7.70;99.90;;;;;;6277388;22;20004;-85
2022/11/10 07:20:17;;;;;;;196.98;111.78;;;7.70;99.90;;;;;;6279342;22;19995;-84
2022/11/10 07:22:43;;;;;;;210.80;120.30;;;7.80;99.90;;;;;;6279058;22;19995;-84
2022/11/10 07:25:10;;;;;;;210.25;127.65;;;7.80;99.90;;;;;;6278609;22;19995;-84
2022/11/10 07:27:36;;;;;;;224.35;138.95;;;7.90;99.90;;;;;;6279185;22;20042;-84
2022/11/10 07:30:02;;;;;;;204.65;120.53;;;8.00;99.90;;;;;;6279006;22;19992;-84
2022/11/10 07:32:28;;;;;;;189.43;110.78;;;8.00;99.90;;;;;;6278741;22;20412;-84
2022/11/10 07:34:53;;;;;;;185.10;116.43;;;8.10;99.90;;;;;;6251934;22;19999;-85
2022/11/10 07:37:19;;;;;;;185.80;113.65;;;8.10;99.90;;;;;;6278879;22;19996;-84
2022/11/10 07:39:45;;;;;;;188.32;114.20;;;8.20;99.90;;;;;;6278837;22;20000;-84
2022/11/10 07:42:11;;;;;;;157.43;100.40;;;8.30;99.90;;;;;;6279002;22;19996;-84
2022/11/10 07:44:36;;;;;;;162.95;98.90;;;8.40;99.90;;;;;;6277368;22;20026;-84
2022/11/10 07:47:02;;;;;;;155.57;92.57;;;8.40;99.90;;;;;;6278384;22;19995;-84
2022/11/10 07:49:28;;;;;;;159.02;98.38;;;8.50;99.90;;;;;;6277537;22;20003;-83
2022/11/10 07:51:54;;;;;;;164.93;103.22;;;8.60;99.90;;;;;;6278925;22;19998;-83
2022/11/10 07:54:20;;;;;;;151.95;100.05;;;8.70;99.90;;;;;;6277068;22;19996;-84
2022/11/10 07:56:46;;;;;;;161.73;104.15;;;8.80;99.90;;;;;;6278778;22;19996;-84
2022/11/10 07:59:12;;;;;;;152.10;98.47;;;9.00;99.90;;;;;;6251412;22;20041;-85
2022/11/10 08:01:37;;;;;;;177.27;115.07;;;9.00;99.90;;;;;;6278190;22;20041;-84
2022/11/10 08:04:03;;;;;;;139.25;90.97;;;9.10;99.90;;;;;;6276253;22;20030;-84
2022/11/10 08:06:30;;;;;;;144.02;95.95;;;9.20;99.90;;;;;;6278266;22;20000;-85
2022/11/10 08:08:56;;;;;;;130.65;85.68;;;9.30;99.90;;;;;;6278629;22;20037;-84
2022/11/10 08:11:22;;;;;;;131.07;84.57;;;9.40;99.90;;;;;;6278166;22;19991;-85
2022/11/10 08:13:48;;;;;;;125.35;80.53;;;9.50;99.90;;;;;;6278113;22;20348;-85
2022/11/10 08:16:14;;;;;;;124.18;75.90;;;9.60;99.90;;;;;;6278477;22;19999;-84
2022/11/10 08:18:39;;;;;;;122.25;73.15;;;9.80;99.90;;;;;;6278167;22;20371;-84
2022/11/10 08:21:05;;;;;;;113.78;68.78;;;9.90;99.90;;;;;;6277686;22;20003;-84
2022/11/10 08:23:32;;;;;;;108.05;64.03;;;10.00;99.90;;;;;;6278769;22;20067;-84
2022/11/10 08:25:59;;;;;;;93.75;55.70;;;10.10;99.90;;;;;;6278446;22;19999;-84
2022/11/10 08:28:25;;;;;;;124.65;68.20;;;10.30;99.90;;;;;;6278227;22;20293;-83
2022/11/10 08:30:51;;;;;;;84.43;50.20;;;10.40;99.90;;;;;;6251453;22;19992;-84
2022/11/10 08:33:18;;;;;;;89.50;53.92;;;10.50;99.90;;;;;;6278008;22;19996;-84
2022/11/10 08:35:47;;;;;;;81.65;52.75;;;10.70;99.90;;;;;;6277975;22;20067;-85
2022/11/10 08:38:21;;;;;;;80.03;47.03;;;10.70;99.90;;;;;;6250863;22;20004;-85
2022/11/10 08:40:47;;;;;;;78.82;49.85;;;10.80;99.90;;;;;;6250747;22;19995;-85
2022/11/10 08:43:14;;;;;;;81.03;45.97;;;10.90;99.90;;;;;;6250470;22;20057;-85
2022/11/10 08:45:41;;;;;;;80.53;47.80;;;10.90;99.90;;;;;;6277825;22;20046;-83
2022/11/10 08:48:10;;;;;;;73.10;43.35;;;11.00;99.90;;;;;;6250520;22;19992;-85
2022/11/10 08:50:36;;;;;;;71.63;41.75;;;11.20;99.90;;;;;;6276917;22;20340;-84
2022/11/10 08:53:13;;;;;;;64.28;41.65;;;11.30;99.90;;;;;;6250979;22;19996;-86
2022/11/10 08:55:40;;;;;;;59.13;38.33;;;11.40;99.90;;;;;;6250917;22;20049;-84
2022/11/10 08:58:09;;;;;;;63.10;38.70;;;11.60;99.90;;;;;;6278261;22;20002;-84
2022/11/10 09:00:35;;;;;;;56.92;35.72;;;11.60;99.90;;;;;;6277726;22;19988;-84
2022/11/10 09:03:12;;;;;;;53.83;35.42;;;11.70;99.90;;;;;;6276349;22;20316;-84
2022/11/10 09:05:39;;;;;;;66.82;37.47;;;11.80;99.90;;;;;;6276343;22;20214;-84
2022/11/10 09:08:05;;;;;;;61.45;36.22;;;11.90;99.90;;;;;;6250772;22;20401;-84
2022/11/10 09:10:33;;;;;;;59.05;35.97;;;12.10;99.90;;;;;;6250751;22;19995;-85
2022/11/10 09:13:00;;;;;;;48.42;32.55;;;12.20;99.90;;;;;;6277733;22;19999;-83
2022/11/10 09:15:26;;;;;;;61.40;37.78;;;12.40;99.90;;;;;;6277592;22;20074;-84
2022/11/10 09:17:52;;;;;;;53.25;34.33;;;12.50;99.90;;;;;;6276970;22;20003;-84
2022/11/10 09:20:18;;;;;;;53.75;33.08;;;12.70;99.90;;;;;;6278403;22;19992;-84
2022/11/10 09:22:44;;;;;;;56.08;34.45;;;12.80;99.90;;;;;;6277827;22;20114;-84
2022/11/10 09:25:10;;;;;;;61.42;38.20;;;12.90;99.90;;;;;;6277657;22;20304;-85
2022/11/10 09:27:37;;;;;;;58.38;36.55;;;13.00;99.90;;;;;;6275538;22;20011;-83
2022/11/10 09:30:07;;;;;;;57.78;36.30;;;13.20;99.90;;;;;;6277624;22;20412;-84
2022/11/10 09:32:33;;;;;;;62.20;37.70;;;13.50;99.90;;;;;;6277527;22;20027;-85
2022/11/10 09:34:59;;;;;;;59.45;36.92;;;13.80;99.90;;;;;;6276194;22;19995;-85
2022/11/10 09:37:24;;;;;;;62.00;37.42;;;13.90;99.90;;;;;;6250354;22;20459;-84
2022/11/10 09:39:50;;;;;;;59.33;41.55;;;14.10;99.90;;;;;;6277014;22;19996;-85
2022/11/10 09:42:25;;;;;;;57.13;37.58;;;14.20;99.90;;;;;;6277611;22;20126;-85
2022/11/10 09:44:58;;;;;;;62.03;40.67;;;14.40;99.90;;;;;;6277336;22;20038;-85
2022/11/10 09:47:37;;;;;;;54.42;36.40;;;14.60;99.90;;;;;;6277762;22;19996;-83
2022/11/10 09:50:05;;;;;;;49.58;32.92;;;14.90;99.90;;;;;;6250622;22;19999;-84
2022/11/10 09:52:34;;;;;;;55.67;33.08;;;15.20;99.90;;;;;;6277276;22;20071;-85
2022/11/10 09:55:28;;;;;;;47.85;33.65;;;15.40;99.90;;;;;;6250395;22;20356;-85
2022/11/10 09:57:57;;;;;;;47.63;33.58;;;15.70;99.90;;;;;;6229240;22;20408;-86
2022/11/10 10:00:22;;;;;;;49.53;33.47;;;15.90;99.90;;;;;;6277076;22;19987;-84
2022/11/10 10:02:55;;;;;;;52.47;31.83;;;16.20;99.90;;;;;;6276804;22;20107;-84
2022/11/10 10:05:34;;;;;;;49.70;29.08;;;16.60;99.90;;;;;;6276902;22;20046;-85
2022/11/10 10:08:19;;;;;;;43.42;29.15;;;16.80;99.90;;;;;;6277352;22;20019;-84
2022/11/10 10:10:58;;;;;;;39.75;27.50;;;17.10;99.90;;;;;;6277478;22;20011;-85
2022/11/10 10:13:46;;;;;;;65.93;39.35;;;17.30;99.90;;;;;;6277638;22;20049;-84
2022/11/10 10:16:50;;;;;;;50.75;33.50;;;17.50;99.90;;;;;;6277391;22;20466;-84
2022/11/10 10:19:19;;;;;;;43.72;27.10;;;18.10;99.90;;;;;;6277617;22;20022;-84
2022/11/10 10:22:13;;;;;;;36.00;24.05;;;18.40;99.90;;;;;;6250133;22;20336;-83
2022/11/10 10:24:39;;;;;;;36.05;24.15;;;18.50;99.90;;;;;;6250321;22;20320;-84
2022/11/10 10:27:09;;;;;;;34.20;22.65;;;18.80;99.10;;;;;;6275533;22;20003;-84
2022/11/10 10:29:52;;;;;;;34.72;22.25;;;18.80;96.70;;;;;;6277274;22;19996;-84
2022/11/10 10:32:21;;;;;;;30.33;20.90;;;18.90;96.20;;;;;;6277096;22;20007;-85
2022/11/10 10:34:47;;;;;;;37.30;23.15;;;;;;;;;;6277201;22;19992;-84
2022/11/10 10:37:49;;;;;;;31.27;20.42;;;19.20;95.70;;;;;;6250000;22;20006;-85
2022/11/10 10:40:21;;;;;;;34.35;22.38;;;19.40;94.20;;;;;;6250637;22;20305;-85
2022/11/10 10:42:48;;;;;;;38.45;24.25;;;19.30;91.90;;;;;;6250720;22;20000;-83
2022/11/10 10:45:21;;;;;;;33.10;22.50;;;19.50;91.80;;;;;;6276199;22;19996;-85
2022/11/10 10:47:50;;;;;;;31.90;21.27;;;19.60;91.90;;;;;;6249566;22;20054;-85
2022/11/10 10:50:16;;;;;;;37.50;22.33;;;;;;;;;;6224726;22;20409;-85
2022/11/10 10:52:41;;;;;;;49.67;24.60;;;20.00;99.90;;;;;;6250259;22;20000;-84
2022/11/10 10:55:11;;;;;;;34.15;21.88;;;19.90;90.40;;;;;;6277222;22;19996;-85
2022/11/10 10:57:52;;;;;;;33.17;21.52;;;19.80;90.60;;;;;;6277355;22;20000;-85
2022/11/10 11:00:20;;;;;;;39.72;24.42;;;20.00;91.30;;;;;;6277218;22;19992;-85
2022/11/10 11:03:05;;;;;;;39.75;22.92;;;19.80;89.30;;;;;;6249279;22;20090;-85
2022/11/10 11:05:31;;;;;;;58.20;31.85;;;20.00;89.50;;;;;;6249541;22;19995;-85
2022/11/10 11:08:01;;;;;;;37.28;25.13;;;20.20;90.00;;;;;;6274996;22;20010;-84
2022/11/10 11:10:31;;;;;;;34.92;22.15;;;20.00;87.30;;;;;;6249370;22;19992;-84
2022/11/10 11:13:24;;;;;;;38.97;21.83;;;20.20;87.80;;;;;;6249586;22;20004;-85
2022/11/10 11:15:58;;;;;;;33.58;21.83;;;20.30;84.90;;;;;;6271835;22;20011;-84
2022/11/10 11:18:26;;;;;;;36.83;24.50;;;20.30;84.60;;;;;;6249610;22;20056;-83
2022/11/10 11:21:33;;;;;;;32.67;22.55;;;20.00;86.00;;;;;;6276801;22;20002;-85
2022/11/10 11:24:11;;;;;;;35.03;21.40;;;19.60;86.30;;;;;;6249130;22;20088;-85
2022/11/10 11:26:57;;;;;;;32.00;22.10;;;19.30;88.00;;;;;;6249855;22;20413;-83
2022/11/10 11:29:32;;;;;;;37.97;23.40;;;19.70;89.00;;;;;;6247546;22;20023;-84
2022/11/10 11:32:12;;;;;;;40.72;24.23;;;19.90;89.10;;;;;;6276509;22;19988;-85
2022/11/10 11:34:59;;;;;;;35.60;19.25;;;19.90;90.00;;;;;;6276779;22;19998;-87
2022/11/10 11:37:40;;;;;;;29.70;14.45;;;20.10;89.00;;;;;;6276198;22;20046;-85
2022/11/10 11:40:13;;;;;;;20.95;11.20;;;20.10;84.00;;;;;;6249431;22;20401;-85
2022/11/10 11:43:03;;;;;;;23.35;13.88;;;20.20;81.80;;;;;;6249444;22;19996;-87
2022/11/10 11:45:52;;;;;;;13.73;10.25;;;20.30;80.90;;;;;;6249508;22;19999;-86
2022/11/10 11:48:35;;;;;;;17.88;11.48;;;;;;;;;;6233359;22;20077;-84
2022/11/10 11:51:29;;;;;;;22.77;11.68;;;20.50;99.90;;;;;;6276512;22;19996;-84
2022/11/10 11:54:14;;;;;;;20.13;12.35;;;;;;;;;;6197465;22;20321;-85
2022/11/10 11:56:48;;;;;;;18.63;13.52;;;20.80;76.50;;;;;;6277800;22;19999;-86
2022/11/10 11:59:42;;;;;;;40.83;20.92;;;20.60;75.80;;;;;;6278190;22;20003;-85
2022/11/10 12:02:22;;;;;;;36.65;17.52;;;20.10;79.40;;;;;;6249504;22;19991;-86
2022/11/10 12:05:25;;;;;;;35.05;18.67;;;19.50;80.50;;;;;;6276060;22;20019;-85
2022/11/10 12:08:08;;;;;;;23.58;14.40;;;19.10;82.90;;;;;;6251399;22;20408;-83
2022/11/10 12:11:17;;;;;;;28.17;15.57;;;18.80;84.20;;;;;;6251273;22;20003;-86
2022/11/10 12:13:46;;;;;;;29.38;17.33;;;18.50;90.00;;;;;;6154503;23;20389;-86
2022/11/10 12:16:20;;;;;;;24.23;16.25;;;18.40;90.10;;;;;;6152171;23;20033;-86
2022/11/10 12:19:02;;;;;;;23.00;15.45;;;18.20;90.40;;;;;;6128309;23;20009;-86
2022/11/10 12:21:33;;;;;;;29.67;17.65;;;18.00;91.20;;;;;;6128987;23;20422;-86
2022/11/10 12:24:20;;;;;;;26.05;15.25;;;17.90;92.60;;;;;;6129386;23;20088;-88
2022/11/10 12:27:02;;;;;;;30.63;18.75;;;17.70;93.30;;;;;;6129967;23;20068;-89
2022/11/10 12:29:45;;;;;;;29.52;17.75;;;17.60;93.60;;;;;;6158175;23;20017;-87
2022/11/10 12:32:21;;;;;;;26.48;17.20;;;17.50;95.40;;;;;;6184280;23;20001;-87
2022/11/10 12:34:52;;;;;;;34.45;21.70;;;17.40;95.80;;;;;;6159375;23;19997;-88
2022/11/10 12:37:31;;;;;;;33.70;21.17;;;17.40;98.50;;;;;;6184216;23;20005;-87
2022/11/10 12:40:02;;;;;;;36.58;21.52;;;17.40;99.00;;;;;;6159186;23;19997;-87
2022/11/10 12:42:31;;;;;;;31.53;19.53;;;17.30;99.90;;;;;;6159732;23;20454;-87
2022/11/10 12:44:59;;;;;;;35.05;19.95;;;17.20;99.90;;;;;;6184269;23;19993;-88
2022/11/10 12:47:30;;;;;;;33.97;17.15;;;17.10;99.90;;;;;;6189530;22;20046;-88